Time;durP1;ratioP1;P1;durP2;ratioP2;P2;SDS_P1;SDS_P2;PMS_P1;PMS_P2;Temp;Humidity;BMP_temperature;BMP_pressure;BME280_temperature;BME280_humidity;BME280_pressure;Samples;Min_cycle;Max_cycle;Signal;HPM_P1;HPM_P2
2022/04/02 00:00:11;;;;;;;;;18.75;14.25;;;;;4.28;68.58;101155.41;5037208;28;46139;-68
2022/04/02 00:02:36;;;;;;;;;15.50;12.25;;;;;4.33;68.40;101171.84;5036483;28;45596;-68
2022/04/02 00:05:02;;;;;;;;;20.25;10.75;;;;;4.29;68.72;101164.97;5036510;28;45487;-68
2022/04/02 00:07:27;;;;;;;;;14.00;12.00;;;;;4.25;68.40;101169.34;5030058;28;45496;-68
2022/04/02 00:09:52;;;;;;;;;16.50;11.00;;;;;4.23;68.16;101178.03;5036014;28;45294;-68
2022/04/02 00:12:18;;;;;;;;;15.00;14.50;;;;;4.15;68.14;101172.91;5032931;28;45363;-68
2022/04/02 00:14:45;;;;;;;;;15.00;12.00;;;;;4.04;68.31;101172.16;5031775;28;45407;-68
2022/04/02 00:17:10;;;;;;;;;13.75;11.00;;;;;3.96;68.17;101171.34;5031734;28;46173;-68
2022/04/02 00:19:36;;;;;;;;;13.00;11.50;;;;;3.90;68.46;101172.25;5031763;28;45496;-68
2022/04/02 00:22:01;;;;;;;;;11.75;9.00;;;;;3.85;68.38;101168.84;5036306;28;45500;-68
2022/04/02 00:24:27;;;;;;;;;12.25;12.00;;;;;3.79;68.48;101171.50;5032472;28;45379;-68
2022/04/02 00:26:52;;;;;;;;;10.00;9.25;;;;;3.72;68.28;101168.09;5032810;28;46935;-68
2022/04/02 00:29:17;;;;;;;;;10.50;7.75;;;;;3.71;68.14;101170.69;5026687;28;45361;-68
2022/04/02 00:31:43;;;;;;;;;14.50;12.50;;;;;3.63;68.40;101166.41;5034088;28;45319;-69
2022/04/02 00:34:08;;;;;;;;;13.75;11.50;;;;;3.59;67.84;101156.91;5036257;28;45580;-69
2022/04/02 00:36:37;;;;;;;;;11.50;10.75;;;;;3.65;68.22;101171.59;5032622;28;47293;-69
2022/04/02 00:39:04;;;;;;;;;14.75;12.25;;;;;3.65;68.35;101179.38;5017826;28;45793;-69
2022/04/02 00:41:29;;;;;;;;;18.00;11.00;;;;;3.60;68.20;101171.66;5031404;28;45528;-68
2022/04/02 00:44:06;;;;;;;;;13.75;11.25;;;;;3.51;68.34;101157.84;5031393;28;45483;-68
2022/04/02 00:46:31;;;;;;;;;7.00;7.00;;;;;3.55;68.09;101165.63;5031436;28;45449;-68
2022/04/02 00:48:56;;;;;;;;;5.50;5.00;;;;;3.52;68.15;101165.63;5034834;28;45473;-69
2022/04/02 00:51:22;;;;;;;;;13.50;8.25;;;;;3.50;67.93;101156.09;5036369;28;45288;-69
2022/04/02 00:53:50;;;;;;;;;13.75;11.50;;;;;3.55;68.50;101162.13;5031458;28;45547;-69
2022/04/02 00:56:16;;;;;;;;;7.00;5.00;;;;;3.50;68.61;101164.78;5031163;28;46181;-69
2022/04/02 00:58:42;;;;;;;;;10.50;9.25;;;;;3.57;68.40;101173.41;5031105;28;45448;-70
2022/04/02 01:01:08;;;;;;;;;10.25;9.00;;;;;3.49;68.38;101159.59;5034599;28;45421;-69
2022/04/02 01:03:34;;;;;;;;;9.75;8.00;;;;;3.52;68.39;101165.63;5031903;28;45457;-69
2022/04/02 01:06:00;;;;;;;;;8.50;7.25;;;;;3.46;67.79;101163.09;5034817;28;45424;-69
2022/04/02 01:08:25;;;;;;;;;7.25;4.00;;;;;3.49;67.52;101170.84;5032275;28;45380;-69
2022/04/02 01:10:50;;;;;;;;;5.50;5.00;;;;;3.52;67.75;101169.97;5031131;28;45585;-69
2022/04/02 01:13:16;;;;;;;;;5.50;5.00;;;;;3.46;67.48;101164.81;5033156;28;45438;-70
2022/04/02 01:15:42;;;;;;;;;4.00;4.00;;;;;3.41;67.49;101164.84;5033865;28;45568;-69
2022/04/02 01:18:08;;;;;;;;;5.50;5.00;;;;;3.48;67.33;101173.44;5034235;28;45385;-69
2022/04/02 01:20:34;;;;;;;;;7.00;6.00;;;;;3.33;67.46;101151.88;5031144;28;46832;-69
2022/04/02 01:23:00;;;;;;;;;7.75;5.50;;;;;3.40;67.26;101160.53;5031066;28;45561;-69
2022/04/02 01:25:31;;;;;;;;;7.00;6.50;;;;;3.31;67.10;101150.19;5032001;28;45674;-69
2022/04/02 01:27:58;;;;;;;;;6.25;5.00;;;;;3.37;67.10;101164.00;5019501;28;46000;-69
2022/04/02 01:30:23;;;;;;;;;6.00;4.00;;;;;3.32;66.91;101157.09;5031768;28;45388;-69
2022/04/02 01:32:48;;;;;;;;;8.00;6.00;;;;;3.30;66.80;101159.72;5031069;28;45598;-69
2022/04/02 01:35:14;;;;;;;;;3.50;3.50;;;;;3.25;66.66;101166.69;5029255;28;46521;-69
2022/04/02 01:37:39;;;;;;;;;6.00;3.75;;;;;3.24;66.39;101153.72;5030646;28;45294;-69
2022/04/02 01:40:06;;;;;;;;;3.50;2.50;;;;;3.24;66.55;101166.69;5034343;28;45559;-69
2022/04/02 01:42:32;;;;;;;;;7.50;3.00;;;;;3.23;66.37;101173.59;5032313;28;45251;-69
2022/04/02 01:44:58;;;;;;;;;4.25;2.00;;;;;3.19;66.24;101182.31;5030850;28;45397;-69
2022/04/02 01:47:24;;;;;;;;;6.50;2.00;;;;;3.10;66.48;101169.38;5030347;28;45496;-69
2022/04/02 01:49:50;;;;;;;;;2.00;2.00;;;;;3.12;66.38;101180.59;5030643;28;45468;-69
2022/04/02 01:52:17;;;;;;;;;4.25;4.25;;;;;3.06;66.10;101178.91;5033022;28;45442;-69
2022/04/02 01:54:43;;;;;;;;;5.00;2.00;;;;;3.05;66.17;101176.31;5033135;28;46413;-69
2022/04/02 01:57:09;;;;;;;;;3.75;2.00;;;;;3.02;66.40;101171.13;5029913;28;45274;-69
2022/04/02 01:59:34;;;;;;;;;4.75;4.75;;;;;3.05;66.11;101182.38;5027568;28;45494;-69
2022/04/02 02:02:00;;;;;;;;;4.00;2.00;;;;;3.04;66.21;101182.38;5032501;28;45397;-69
2022/04/02 02:04:26;;;;;;;;;4.75;4.25;;;;;2.99;65.92;101186.72;5030875;28;45415;-69
2022/04/02 02:06:52;;;;;;;;;4.25;3.00;;;;;3.01;66.03;101190.16;5034390;28;45641;-69
2022/04/02 02:09:17;;;;;;;;;2.00;2.00;;;;;2.99;65.93;101189.34;5030912;28;45574;-69
2022/04/02 02:11:42;;;;;;;;;3.33;3.33;;;;;2.96;65.95;101197.97;5030558;28;45456;-69
2022/04/02 02:14:08;;;;;;;;;5.00;5.00;;;;;2.97;66.00;101204.03;5029909;28;45496;-69
2022/04/02 02:16:34;;;;;;;;;2.00;2.00;;;;;3.06;65.95;101215.25;5030256;28;45493;-69
2022/04/02 02:18:59;;;;;;;;;2.00;2.00;;;;;3.01;65.48;101210.94;5034597;28;45508;-69
2022/04/02 02:21:25;;;;;;;;;4.50;2.50;;;;;2.90;65.98;101202.34;5013197;28;45488;-69
2022/04/02 02:23:50;;;;;;;;;2.00;2.00;;;;;2.84;65.97;101188.50;5029942;28;46260;-69
2022/04/02 02:26:16;;;;;;;;;2.00;2.00;;;;;2.86;65.90;101196.28;5028901;28;45525;-69
2022/04/02 02:28:43;;;;;;;;;7.75;2.00;;;;;2.89;65.78;101204.06;5034740;28;45496;-69
2022/04/02 02:31:08;;;;;;;;;1.75;1.00;;;;;2.81;65.89;101192.84;5042012;28;45448;-69
2022/04/02 02:36:18;;;;;;;;;3.00;2.50;;;;;2.76;65.86;101190.25;5030464;28;45779;-69
2022/04/02 02:38:44;;;;;;;;;4.00;4.00;;;;;2.73;65.89;101189.44;5029593;28;45841;-70
2022/04/02 02:41:10;;;;;;;;;5.50;3.00;;;;;2.73;65.76;101190.28;5030153;28;45269;-69
2022/04/02 02:43:36;;;;;;;;;7.25;3.50;;;;;2.74;65.95;101193.75;5029580;28;46340;-69
2022/04/02 02:46:01;;;;;;;;;9.50;2.00;;;;;2.65;65.94;101183.38;5033442;28;45313;-69
2022/04/02 02:48:26;;;;;;;;;3.50;3.50;;;;;2.73;66.16;101202.41;5030889;28;45436;-69
2022/04/02 02:50:52;;;;;;;;;3.25;2.00;;;;;2.72;66.12;101204.16;5029533;28;45306;-69
2022/04/02 02:53:17;;;;;;;;;4.50;4.00;;;;;2.68;66.07;101205.00;5029191;28;45777;-69
2022/04/02 02:55:44;;;;;;;;;5.00;2.00;;;;;2.68;66.20;101202.41;5032925;28;45465;-69
2022/04/02 02:58:10;;;;;;;;;2.00;2.00;;;;;2.67;66.47;101205.03;5032726;28;45605;-69
2022/04/02 03:00:35;;;;;;;;;5.50;3.50;;;;;2.67;66.17;101205.03;5031531;28;45385;-69
2022/04/02 03:03:01;;;;;;;;;1.75;1.75;;;;;2.68;66.48;101210.22;5029851;28;46532;-69
2022/04/02 03:05:26;;;;;;;;;7.00;4.75;;;;;2.70;66.48;101224.03;5029404;28;45733;-69
2022/04/02 03:07:52;;;;;;;;;2.50;2.50;;;;;2.65;66.59;101215.38;5029480;28;45416;-69
2022/04/02 03:10:19;;;;;;;;;3.50;3.50;;;;;2.68;66.43;101227.50;5031366;28;45525;-69
2022/04/02 03:12:46;;;;;;;;;4.00;4.00;;;;;2.59;66.33;101216.28;5032190;28;46303;-69
2022/04/02 03:15:13;;;;;;;;;6.50;5.00;;;;;2.61;66.34;101232.72;5029990;28;45878;-69
2022/04/02 03:17:39;;;;;;;;;5.00;4.00;;;;;2.58;66.44;101221.47;5029280;28;45587;-69
2022/04/02 03:20:05;;;;;;;;;4.75;2.50;;;;;2.58;66.33;101229.25;5029535;28;45427;-69
2022/04/02 03:22:39;;;;;;;;;4.00;2.50;;;;;2.60;66.41;101235.28;5029244;28;45531;-69
2022/04/02 03:25:09;;;;;;;;;8.25;5.75;;;;;2.59;66.31;101231.84;5033108;28;45330;-69
2022/04/02 03:27:35;;;;;;;;;5.50;5.00;;;;;2.53;66.61;101231.00;5022202;28;45430;-69
2022/04/02 03:30:00;;;;;;;;;7.25;6.50;;;;;2.57;66.57;101237.91;5020598;28;45458;-69
2022/04/02 03:32:25;;;;;;;;;7.00;5.00;;;;;2.51;66.38;101225.81;5029242;28;45513;-69
2022/04/02 03:34:51;;;;;;;;;4.50;3.00;;;;;2.46;66.34;101219.78;5028930;28;45491;-69
2022/04/02 03:37:16;;;;;;;;;5.25;4.75;;;;;2.50;66.67;101241.38;5031033;28;45432;-69
2022/04/02 03:39:42;;;;;;;;;4.25;4.00;;;;;2.49;66.67;101237.06;5032036;28;45363;-69
2022/04/02 03:42:08;;;;;;;;;5.00;5.00;;;;;2.44;66.65;101231.00;5029267;28;45472;-69
2022/04/02 03:44:34;;;;;;;;;4.00;4.00;;;;;2.46;66.80;101237.06;5028930;28;45456;-69
2022/04/02 03:47:08;;;;;;;;;8.00;7.00;;;;;2.40;67.05;101229.28;5028992;28;45418;-69
2022/04/02 03:49:34;;;;;;;;;6.25;6.00;;;;;2.40;66.94;101234.47;5033369;28;45476;-69
2022/04/02 03:51:59;;;;;;;;;9.00;4.50;;;;;2.38;66.68;101229.28;5033147;28;45515;-69
2022/04/02 03:54:24;;;;;;;;;7.25;6.50;;;;;2.34;66.86;101232.75;5030015;28;45480;-69
2022/04/02 03:56:50;;;;;;;;;7.25;5.50;;;;;2.43;66.77;101257.81;5030551;28;45531;-69
2022/04/02 03:59:15;;;;;;;;;4.50;4.00;;;;;2.32;67.06;101242.28;5026699;28;45836;-69
2022/04/02 04:01:41;;;;;;;;;10.00;7.00;;;;;2.45;67.06;101258.66;5035818;28;46622;-70
2022/04/02 04:04:06;;;;;;;;;5.25;5.25;;;;;2.29;67.20;101248.31;5027828;28;45508;-69
2022/04/02 04:06:31;;;;;;;;;5.25;5.25;;;;;2.26;67.20;101245.72;5033585;28;45485;-69
2022/04/02 04:08:58;;;;;;;;;8.50;7.00;;;;;2.21;67.16;101239.69;5032677;28;45540;-69
2022/04/02 04:11:25;;;;;;;;;7.75;5.50;;;;;2.29;67.16;101258.69;5031841;28;45422;-69
2022/04/02 04:13:51;;;;;;;;;5.00;4.75;;;;;2.18;67.32;101242.28;5032047;28;45770;-69
2022/04/02 04:16:16;;;;;;;;;5.00;5.00;;;;;2.21;67.32;101242.28;5034100;28;45383;-69
2022/04/02 04:18:41;;;;;;;;;6.50;4.25;;;;;2.22;67.17;101251.78;5034623;28;45390;-69
2022/04/02 04:21:07;;;;;;;;;5.67;5.67;;;;;2.22;67.55;101256.97;5032456;28;46654;-69
2022/04/02 04:23:34;;;;;;;;;8.00;7.00;;;;;2.17;67.54;101258.69;5031879;28;45510;-69
2022/04/02 04:26:00;;;;;;;;;5.75;5.25;;;;;2.16;67.49;101261.31;5034021;28;46755;-69
2022/04/02 04:28:25;;;;;;;;;4.75;4.75;;;;;2.16;67.55;101266.47;5032607;28;45422;-69
2022/04/02 04:30:51;;;;;;;;;8.50;8.50;;;;;2.12;67.48;101270.78;5035493;28;46120;-70
2022/04/02 04:33:16;;;;;;;;;7.25;6.50;;;;;2.13;67.83;101280.28;5032533;28;45399;-69
2022/04/02 04:35:41;;;;;;;;;8.67;5.00;;;;;2.08;67.87;101276.84;5031684;28;45459;-69
2022/04/02 04:38:07;;;;;;;;;6.67;4.33;;;;;2.09;67.64;101278.59;5031692;28;45349;-69
2022/04/02 04:40:32;;;;;;;;;6.00;4.75;;;;;2.08;67.77;101277.69;5031466;28;45498;-69
2022/04/02 04:42:58;;;;;;;;;5.00;4.75;;;;;2.08;67.65;101279.44;5036448;28;45213;-69
2022/04/02 04:45:23;;;;;;;;;9.00;7.00;;;;;2.12;67.89;101298.47;5032221;28;45510;-69
2022/04/02 04:47:49;;;;;;;;;7.25;4.50;;;;;2.07;67.94;101288.94;5031527;28;45560;-69
2022/04/02 04:50:14;;;;;;;;;4.75;4.75;;;;;2.05;67.66;101295.00;5030993;28;46122;-69
2022/04/02 04:52:40;;;;;;;;;7.50;5.00;;;;;1.99;67.84;101285.50;5031302;28;45513;-69
2022/04/02 04:55:05;;;;;;;;;10.00;7.50;;;;;2.08;68.04;101306.22;5035577;28;45422;-69
2022/04/02 04:57:31;;;;;;;;;6.75;5.00;;;;;2.00;68.32;101297.59;5028616;28;46744;-69
2022/04/02 04:59:57;;;;;;;;;10.50;5.00;;;;;2.08;68.22;101307.94;5031339;28;45225;-70
2022/04/02 05:02:22;;;;;;;;;8.00;8.00;;;;;2.02;68.03;101300.16;5034230;28;45273;-70
2022/04/02 05:04:49;;;;;;;;;7.00;5.00;;;;;2.01;68.16;101312.28;5031112;28;45339;-69
2022/04/02 05:07:15;;;;;;;;;4.00;4.00;;;;;2.00;67.89;101312.28;5033570;28;45459;-69
2022/04/02 05:09:42;;;;;;;;;8.00;7.00;;;;;1.99;68.23;101307.97;5015362;28;48280;-69
2022/04/02 05:12:08;;;;;;;;;7.50;5.00;;;;;1.94;68.44;101309.69;5031929;28;45492;-70
2022/04/02 05:14:35;;;;;;;;;10.25;5.50;;;;;1.99;68.49;101310.56;5031173;28;46787;-69
2022/04/02 05:17:00;;;;;;;;;5.00;5.00;;;;;1.99;68.25;101320.91;5031004;28;45444;-69
2022/04/02 05:19:26;;;;;;;;;6.50;3.50;;;;;1.98;68.28;101312.25;5031479;28;45573;-69
2022/04/02 05:21:51;;;;;;;;;8.75;5.25;;;;;2.00;68.57;101326.09;5035350;28;45374;-69
2022/04/02 05:24:17;;;;;;;;;7.00;4.25;;;;;1.96;68.53;101315.72;5031605;28;45591;-69
2022/04/02 05:26:42;;;;;;;;;7.00;5.50;;;;;2.08;68.43;101342.50;5033922;28;45425;-69
2022/04/02 05:29:10;;;;;;;;;5.25;4.00;;;;;1.99;68.46;101331.28;5025074;28;46537;-69
2022/04/02 05:31:36;;;;;;;;;9.50;4.00;;;;;1.96;68.35;101326.94;5034589;28;45915;-69
2022/04/02 05:34:01;;;;;;;;;4.75;4.00;;;;;1.94;68.14;101318.31;5034754;28;45472;-69
2022/04/02 05:36:26;;;;;;;;;9.75;5.50;;;;;1.94;68.25;101320.06;5032169;28;45387;-69
2022/04/02 05:38:52;;;;;;;;;6.75;4.75;;;;;1.99;68.47;101334.75;5030473;28;45480;-69
2022/04/02 05:41:17;;;;;;;;;7.25;4.25;;;;;1.93;68.23;101318.28;5030270;28;45357;-69
2022/04/02 05:43:42;;;;;;;;;11.75;8.75;;;;;1.95;68.17;101329.56;5030759;28;47401;-69
2022/04/02 05:46:10;;;;;;;;;5.75;4.50;;;;;1.99;68.15;101339.06;5033678;28;45571;-69
2022/04/02 05:48:35;;;;;;;;;7.75;7.75;;;;;1.98;68.12;101335.59;5032382;28;45523;-69
2022/04/02 05:51:01;;;;;;;;;4.75;4.75;;;;;2.00;68.52;101331.28;5030874;28;45302;-69
2022/04/02 05:53:26;;;;;;;;;9.50;6.25;;;;;2.10;68.28;101352.91;5030384;28;45488;-69
2022/04/02 05:55:51;;;;;;;;;8.75;4.00;;;;;2.07;68.01;101345.97;5031566;28;45559;-69
2022/04/02 05:58:17;;;;;;;;;7.00;5.25;;;;;2.12;68.10;101353.75;5022860;28;46551;-70
2022/04/02 06:00:42;;;;;;;;;7.00;3.00;;;;;2.11;68.27;101346.84;5032857;28;45571;-69
2022/04/02 06:03:08;;;;;;;;;7.50;7.00;;;;;2.12;68.25;101343.41;5034877;28;45172;-70
2022/04/02 06:05:35;;;;;;;;;7.00;7.00;;;;;2.23;68.00;101356.38;5030210;28;45548;-69
2022/04/02 06:08:01;;;;;;;;;8.00;6.00;;;;;2.35;67.83;101372.81;5029994;28;46669;-69
2022/04/02 06:10:26;;;;;;;;;4.00;4.00;;;;;2.32;67.86;101366.75;5030816;28;45556;-69
2022/04/02 06:12:52;;;;;;;;;11.25;7.00;;;;;2.35;67.83;101367.63;5034411;28;45417;-69
2022/04/02 06:15:18;;;;;;;;;4.75;4.75;;;;;2.37;67.45;101361.59;5031140;28;45399;-69
2022/04/02 06:17:43;;;;;;;;;6.00;3.00;;;;;2.42;67.70;101362.44;5030008;28;46354;-69
2022/04/02 06:20:09;;;;;;;;;7.50;4.75;;;;;2.52;67.53;101372.84;5029766;28;45473;-69
2022/04/02 06:22:35;;;;;;;;;12.50;5.00;;;;;2.59;67.64;101378.88;5029576;28;45601;-69
2022/04/02 06:25:01;;;;;;;;;9.00;7.00;;;;;2.67;67.40;101382.34;5034098;28;45450;-69
2022/04/02 06:27:26;;;;;;;;;13.25;8.00;;;;;2.67;67.50;101377.16;5030792;28;45644;-69
2022/04/02 06:29:52;;;;;;;;;7.75;7.00;;;;;2.75;67.21;101384.94;5012089;28;45550;-69
2022/04/02 06:32:20;;;;;;;;;11.00;6.00;;;;;2.85;67.33;101399.63;5028570;28;45501;-69
2022/04/02 06:34:46;;;;;;;;;9.75;6.50;;;;;2.95;67.20;101397.91;5024635;28;45532;-69
2022/04/02 06:37:11;;;;;;;;;5.50;5.50;;;;;3.01;67.06;101395.28;5013838;28;49650;-69
2022/04/02 06:39:36;;;;;;;;;7.00;7.00;;;;;3.05;66.72;101404.81;5032149;28;45397;-69
2022/04/02 06:42:02;;;;;;;;;5.00;5.00;;;;;3.12;67.04;101401.31;5030220;28;45540;-69
2022/04/02 06:44:29;;;;;;;;;5.00;4.75;;;;;3.19;66.79;101397.00;5029833;28;45298;-69
2022/04/02 06:46:56;;;;;;;;;5.00;5.00;;;;;3.30;67.22;101405.63;5029214;28;46437;-69
2022/04/02 06:49:21;;;;;;;;;5.00;5.00;;;;;3.47;66.55;101413.38;5030665;28;45429;-69
2022/04/02 06:51:47;;;;;;;;;9.50;5.00;;;;;3.62;66.49;101410.75;5033538;28;45307;-69
2022/04/02 06:54:12;;;;;;;;;4.75;4.00;;;;;3.78;66.88;101412.41;5030462;28;45366;-69
2022/04/02 06:56:37;;;;;;;;;5.50;5.00;;;;;4.04;66.49;101420.09;5029499;28;45441;-69
2022/04/02 06:59:03;;;;;;;;;7.25;5.00;;;;;4.12;65.62;101423.53;5029287;28;45362;-69
2022/04/02 07:01:28;;;;;;;;;8.25;4.50;;;;;4.34;65.82;101433.81;5032968;28;45290;-69
2022/04/02 07:03:53;;;;;;;;;7.25;5.00;;;;;4.56;65.39;101429.31;5023725;28;45496;-69
2022/04/02 07:06:19;;;;;;;;;8.25;4.25;;;;;4.63;65.13;101434.44;5030150;28;45996;-69
2022/04/02 07:08:44;;;;;;;;;7.25;4.50;;;;;4.67;64.89;101435.31;5024169;28;45515;-69
2022/04/02 07:11:09;;;;;;;;;6.25;6.25;;;;;4.70;64.37;101438.75;5022502;28;45392;-69
2022/04/02 07:13:35;;;;;;;;;4.00;4.00;;;;;4.75;64.73;101438.72;5031004;28;55235;-70
2022/04/02 07:16:02;;;;;;;;;5.00;5.00;;;;;4.82;64.68;101448.22;5027087;28;55398;-71
2022/04/02 07:18:28;;;;;;;;;8.00;5.00;;;;;4.84;64.22;101445.56;5025203;28;45868;-69
2022/04/02 07:20:56;;;;;;;;;5.00;5.00;;;;;4.89;63.89;101449.00;5020771;28;45452;-69
2022/04/02 07:23:21;;;;;;;;;7.50;4.00;;;;;4.90;63.71;101443.78;5018278;28;45654;-69
2022/04/02 07:25:49;;;;;;;;;7.25;5.75;;;;;4.90;63.54;101440.31;5022804;28;46198;-70
2022/04/02 07:28:15;;;;;;;;;5.00;4.50;;;;;5.01;63.61;101454.09;5030758;28;45815;-69
2022/04/02 07:30:40;;;;;;;;;7.00;5.50;;;;;5.02;63.06;101450.66;5030725;28;45470;-70
2022/04/02 07:33:06;;;;;;;;;7.00;7.00;;;;;5.18;63.34;101457.44;5031505;28;45789;-70
2022/04/02 07:35:41;;;;;;;;;6.75;5.00;;;;;5.25;63.11;101466.06;5033901;28;46214;-69
2022/04/02 07:38:19;;;;;;;;;4.50;4.00;;;;;5.36;63.31;101463.34;5033770;28;45897;-69
2022/04/02 07:40:48;;;;;;;;;8.25;6.00;;;;;5.44;63.26;101464.16;5034482;28;45777;-70
2022/04/02 07:43:25;;;;;;;;;8.00;7.00;;;;;5.54;62.46;101464.94;5034290;28;45362;-70
2022/04/02 07:46:12;;;;;;;;;8.00;4.75;;;;;5.61;63.00;101469.19;5034153;28;46365;-69
2022/04/02 07:48:41;;;;;;;;;6.75;6.25;;;;;5.76;62.09;101462.06;5031820;28;45520;-70
2022/04/02 07:51:12;;;;;;;;;6.25;6.25;;;;;5.91;62.01;101475.81;5032507;28;45751;-70
2022/04/02 07:53:44;;;;;;;;;2.50;2.50;;;;;6.01;61.46;101477.47;5033479;28;45495;-70
2022/04/02 07:56:14;;;;;;;;;6.00;5.00;;;;;6.09;61.10;101469.53;5033755;28;46270;-69
2022/04/02 07:59:27;;;;;;;;;5.00;4.25;;;;;6.18;61.02;101479.84;5033051;28;45370;-70
2022/04/02 08:01:54;;;;;;;;;5.00;4.00;;;;;6.22;60.82;101465.88;5005326;28;45912;-70
2022/04/02 08:04:21;;;;;;;;;4.75;4.75;;;;;6.46;61.05;101454.22;5035725;28;45382;-71
2022/04/02 08:06:48;;;;;;;;;6.50;4.00;;;;;6.68;60.25;101463.47;5020775;28;45433;-70
2022/04/02 08:09:15;;;;;;;;;6.50;6.00;;;;;6.82;58.62;101458.03;5022648;28;45312;-70
2022/04/02 08:11:41;;;;;;;;;5.00;4.75;;;;;6.94;58.41;101468.31;5033275;28;45521;-70
2022/04/02 08:14:08;;;;;;;;;6.25;2.00;;;;;7.02;57.89;101468.16;5032700;28;45480;-70
2022/04/02 08:16:42;;;;;;;;;7.50;5.25;;;;;7.11;57.80;101457.56;5033385;28;45716;-70
2022/04/02 08:19:09;;;;;;;;;5.50;1.50;;;;;7.26;58.19;101459.06;5033194;28;45518;-70
2022/04/02 08:21:35;;;;;;;;;8.00;5.50;;;;;7.46;57.18;101485.69;5032489;28;45706;-70
2022/04/02 08:24:02;;;;;;;;;3.50;3.50;;;;;7.53;56.42;101482.06;5036946;28;45580;-70
2022/04/02 08:27:00;;;;;;;;;6.00;4.00;;;;;7.68;55.93;101491.41;5034204;28;46229;-69
2022/04/02 08:29:45;;;;;;;;;8.50;4.75;;;;;7.81;55.50;101502.47;5040329;28;45367;-70
2022/04/02 08:32:35;;;;;;;;;7.00;2.00;;;;;7.92;55.08;101492.66;5040371;28;45512;-70
2022/04/02 08:35:06;;;;;;;;;3.75;2.00;;;;;8.10;53.80;101497.53;5040832;28;45510;-70
2022/04/02 08:37:37;;;;;;;;;3.50;2.00;;;;;8.28;54.28;101496.28;5040279;28;45982;-70
2022/04/02 08:40:22;;;;;;;;;3.75;3.75;;;;;8.41;53.41;101501.31;5036373;28;45541;-70
2022/04/02 08:43:12;;;;;;;;;2.25;1.75;;;;;8.73;53.45;101495.34;5032930;28;45807;-70
2022/04/02 08:45:50;;;;;;;;;6.00;2.25;;;;;9.31;52.29;101484.28;5028775;28;45529;-70
2022/04/02 08:48:24;;;;;;;;;2.00;2.00;;;;;10.54;50.94;101489.59;5042297;28;46153;-70
2022/04/02 08:51:10;;;;;;;;;5.00;3.00;;;;;11.91;51.69;101489.41;5043949;28;45998;-70
2022/04/02 08:53:43;;;;;;;;;2.50;2.50;;;;;14.20;49.29;101478.19;5034941;28;45726;-70
2022/04/02 08:56:16;;;;;;;;;5.50;3.00;;;;;16.91;48.37;101481.88;5038312;28;45692;-71
2022/04/02 08:59:07;;;;;;;;;4.50;3.00;;;;;18.70;42.70;101492.22;5035604;28;46568;-71
2022/04/02 09:01:40;;;;;;;;;3.00;3.00;;;;;18.86;39.38;101491.22;5031881;28;45441;-70
2022/04/02 09:04:27;;;;;;;;;6.00;3.50;;;;;18.67;40.60;101502.16;5019475;28;45247;-70
2022/04/02 09:07:14;;;;;;;;;5.25;3.75;;;;;19.77;42.10;101502.81;5031275;28;45310;-70
2022/04/02 09:10:04;;;;;;;;;8.75;6.00;;;;;19.43;39.35;101502.44;5021980;28;45565;-69
2022/04/02 09:12:30;;;;;;;;;7.25;6.00;;;;;21.47;38.04;101496.66;5030869;28;46050;-67
2022/04/02 09:15:11;;;;;;;;;8.00;7.00;;;;;21.17;36.69;101505.16;5029161;28;45500;-67
2022/04/02 09:18:08;;;;;;;;;7.00;7.00;;;;;20.97;36.61;101506.63;5036549;28;45857;-68
2022/04/02 09:20:35;;;;;;;;;4.00;4.00;;;;;22.73;35.92;101498.25;5033024;28;45430;-68
2022/04/02 09:23:10;;;;;;;;;6.25;5.00;;;;;23.14;35.21;101500.22;5032453;28;45730;-67
2022/04/02 09:26:04;;;;;;;;;3.75;3.75;;;;;24.23;34.01;101498.06;5022752;28;45454;-68
2022/04/02 09:29:00;;;;;;;;;4.75;4.50;;;;;23.95;32.29;101501.31;5022435;28;45781;-68
2022/04/02 09:32:05;;;;;;;;;8.50;5.75;;;;;24.81;32.65;101492.84;5023013;28;46542;-68
2022/04/02 09:34:37;;;;;;;;;5.25;5.25;;;;;27.00;30.32;101494.31;5033500;28;45468;-68
2022/04/02 09:37:32;;;;;;;;;5.75;5.75;;;;;28.09;30.03;101490.22;5020834;28;45608;-68
2022/04/02 09:40:08;;;;;;;;;2.50;1.00;;;;;29.26;28.33;101485.81;5028839;28;45559;-68
2022/04/02 09:42:43;;;;;;;;;6.50;6.00;;;;;29.48;27.27;101506.75;5027040;28;46926;-68
2022/04/02 09:45:12;;;;;;;;;6.25;5.00;;;;;29.10;26.76;101508.31;5032527;28;45747;-68
2022/04/02 09:48:15;;;;;;;;;6.75;4.25;;;;;27.69;27.68;101515.13;5026577;28;45477;-68
2022/04/02 09:50:42;;;;;;;;;4.25;4.25;;;;;26.25;26.93;101510.63;5024224;28;45409;-68
2022/04/02 09:53:13;;;;;;;;;7.50;6.50;;;;;25.26;26.97;101506.59;5028044;28;45478;-68
2022/04/02 09:55:51;;;;;;;;;7.75;5.50;;;;;24.71;27.89;101499.06;5019267;28;45476;-68
2022/04/02 09:59:03;;;;;;;;;9.25;5.75;;;;;24.47;27.16;101509.31;5028720;28;45534;-68
2022/04/02 10:01:40;;;;;;;;;88.75;75.75;;;;;23.59;27.25;101501.78;5030588;28;45958;-68
2022/04/02 10:04:28;;;;;;;;;3.25;3.25;;;;;22.67;27.43;101513.00;5024149;28;47218;-66
2022/04/02 10:06:56;;;;;;;;;28.00;25.75;;;;;21.66;27.62;101519.28;5020553;28;45982;-69
2022/04/02 10:09:27;;;;;;;;;5.00;4.75;;;;;20.61;27.28;101534.22;5017216;28;45371;-67
2022/04/02 10:11:55;;;;;;;;;3.00;3.00;;;;;19.53;27.38;101530.19;5025270;28;45499;-68
2022/04/02 10:14:28;;;;;;;;;3.75;3.75;;;;;18.58;28.75;101526.72;5032417;28;46170;-68
2022/04/02 10:17:01;;;;;;;;;5.50;4.00;;;;;18.41;28.39;101527.78;5028672;28;45656;-68
2022/04/02 10:19:28;;;;;;;;;6.25;3.25;;;;;18.42;28.66;101529.50;5030435;28;45544;-69
2022/04/02 10:21:56;;;;;;;;;7.25;5.50;;;;;18.16;30.04;101525.81;5030865;28;45701;-68
2022/04/02 10:24:24;;;;;;;;;6.75;5.75;;;;;18.96;30.41;101526.94;5022300;28;46360;-68
2022/04/02 10:26:55;;;;;;;;;5.00;5.00;;;;;18.82;28.51;101527.84;5033517;28;45886;-67
2022/04/02 10:29:54;;;;;;;;;3.75;3.75;;;;;18.68;28.80;101514.53;5026553;28;45588;-68
2022/04/02 10:32:47;;;;;;;;;4.25;4.25;;;;;18.72;28.56;101526.72;5029455;28;45405;-69
2022/04/02 10:35:13;;;;;;;;;7.00;3.00;;;;;18.68;27.73;101511.88;5032674;28;45480;-67
2022/04/02 10:38:04;;;;;;;;;5.75;4.00;;;;;18.55;28.83;101508.28;5032023;28;45554;-68
2022/04/02 10:40:32;;;;;;;;;4.25;4.25;;;;;18.62;28.13;101512.25;5033761;28;45518;-68
2022/04/02 10:43:04;;;;;;;;;5.50;4.25;;;;;18.28;28.75;101513.56;5027037;28;45945;-67
2022/04/02 10:45:29;;;;;;;;;4.50;2.25;;;;;17.94;28.18;101520.94;5023347;28;45480;-67
2022/04/02 10:48:00;;;;;;;;;4.75;3.00;;;;;17.79;28.73;101520.09;5032556;28;45463;-69
2022/04/02 10:50:26;;;;;;;;;3.00;2.00;;;;;17.87;29.58;101519.63;5022061;28;45827;-67
2022/04/02 10:52:52;;;;;;;;;3.00;3.00;;;;;17.47;29.23;101520.19;5033005;28;45531;-68
2022/04/02 10:55:21;;;;;;;;;3.25;3.00;;;;;17.03;29.53;101508.66;5032720;28;56363;-68
2022/04/02 10:57:47;;;;;;;;;3.25;3.25;;;;;16.61;29.46;101512.78;5029049;28;45349;-67
2022/04/02 11:00:13;;;;;;;;;5.00;2.50;;;;;16.03;29.59;101521.25;5023234;28;45357;-68
2022/04/02 11:02:44;;;;;;;;;3.00;3.00;;;;;15.39;30.33;101523.59;5029186;28;45405;-68
2022/04/02 11:05:14;;;;;;;;;1.75;1.75;;;;;15.04;30.70;101516.56;5028101;28;45624;-67
2022/04/02 11:07:44;;;;;;;;;2.00;2.00;;;;;15.11;30.67;101524.13;5020902;28;45784;-67
2022/04/02 11:10:21;;;;;;;;;2.75;2.00;;;;;15.01;31.11;101498.19;5036142;28;45496;-68
2022/04/02 11:12:48;;;;;;;;;3.00;3.00;;;;;15.46;31.23;101521.53;5037288;28;45676;-68
2022/04/02 11:15:24;;;;;;;;;3.25;1.50;;;;;15.24;31.09;101521.72;5027196;28;46342;-68
2022/04/02 11:17:54;;;;;;;;;3.00;3.00;;;;;14.79;30.72;101520.41;5034770;28;45803;-68
2022/04/02 11:20:22;;;;;;;;;47.75;36.75;;;;;14.52;30.86;101529.66;5033638;28;45558;-68
2022/04/02 11:22:57;;;;;;;;;4.00;4.00;;;;;14.25;30.78;101521.16;5032173;28;45385;-68
2022/04/02 11:25:32;;;;;;;;;2.00;2.00;;;;;13.80;31.33;101527.59;5035300;28;46153;-68
2022/04/02 11:28:18;;;;;;;;;4.25;2.25;;;;;13.27;31.37;101533.38;5025000;28;45756;-68
2022/04/02 11:30:52;;;;;;;;;3.50;2.50;;;;;13.00;31.88;101528.28;5023305;28;45447;-68
2022/04/02 11:33:23;;;;;;;;;3.50;2.50;;;;;13.09;32.12;101521.75;5026251;28;45421;-68
2022/04/02 11:35:50;;;;;;;;;5.25;2.00;;;;;13.37;32.47;101526.78;5024812;28;46286;-70
2022/04/02 11:38:20;;;;;;;;;4.00;2.75;;;;;13.43;32.20;101536.22;5032382;28;45567;-68
2022/04/02 11:41:17;;;;;;;;;9.00;4.75;;;;;13.34;32.59;101523.41;5028018;28;46949;-67